sensor_id;sensor_type;location;lat;lon;timestamp;P1;durP1;ratioP1;P2;durP2;ratioP2
19137;SDS011;68178;52.188;5.598;2023-03-29T00:01:17;4.30;;;3.17;;
19137;SDS011;68178;52.188;5.598;2023-03-29T00:03:45;4.22;;;3.15;;
19137;SDS011;68178;52.188;5.598;2023-03-29T00:06:11;4.80;;;2.88;;
19137;SDS011;68178;52.188;5.598;2023-03-29T00:08:46;7.30;;;3.30;;
19137;SDS011;68178;52.188;5.598;2023-03-29T00:11:15;4.63;;;2.50;;
19137;SDS011;68178;52.188;5.598;2023-03-29T00:13:42;5.55;;;2.78;;
19137;SDS011;68178;52.188;5.598;2023-03-29T00:16:08;4.88;;;2.83;;
19137;SDS011;68178;52.188;5.598;2023-03-29T00:18:36;5.15;;;2.60;;
19137;SDS011;68178;52.188;5.598;2023-03-29T00:21:02;5.18;;;2.80;;
19137;SDS011;68178;52.188;5.598;2023-03-29T00:23:28;5.65;;;3.25;;
19137;SDS011;68178;52.188;5.598;2023-03-29T00:25:55;6.15;;;3.70;;
19137;SDS011;68178;52.188;5.598;2023-03-29T00:28:21;6.38;;;3.38;;
19137;SDS011;68178;52.188;5.598;2023-03-29T00:30:47;5.55;;;3.10;;
19137;SDS011;68178;52.188;5.598;2023-03-29T00:33:16;4.55;;;2.80;;
19137;SDS011;68178;52.188;5.598;2023-03-29T00:35:46;4.72;;;3.10;;
19137;SDS011;68178;52.188;5.598;2023-03-29T00:38:14;4.68;;;3.55;;
19137;SDS011;68178;52.188;5.598;2023-03-29T00:40:44;5.22;;;3.08;;
19137;SDS011;68178;52.188;5.598;2023-03-29T00:43:11;5.40;;;2.92;;
19137;SDS011;68178;52.188;5.598;2023-03-29T00:45:37;3.25;;;2.92;;
19137;SDS011;68178;52.188;5.598;2023-03-29T00:48:08;3.20;;;2.90;;
19137;SDS011;68178;52.188;5.598;2023-03-29T00:56:02;7.00;;;3.20;;
19137;SDS011;68178;52.188;5.598;2023-03-29T00:58:32;4.93;;;3.85;;
19137;SDS011;68178;52.188;5.598;2023-03-29T01:01:01;6.88;;;3.20;;
19137;SDS011;68178;52.188;5.598;2023-03-29T01:03:33;4.63;;;3.20;;
19137;SDS011;68178;52.188;5.598;2023-03-29T01:06:03;3.13;;;2.75;;
19137;SDS011;68178;52.188;5.598;2023-03-29T01:08:31;4.55;;;3.72;;
19137;SDS011;68178;52.188;5.598;2023-03-29T01:13:40;5.20;;;3.20;;
19137;SDS011;68178;52.188;5.598;2023-03-29T01:16:09;6.85;;;3.55;;
19137;SDS011;68178;52.188;5.598;2023-03-29T01:18:36;4.82;;;3.03;;
19137;SDS011;68178;52.188;5.598;2023-03-29T01:21:36;5.40;;;3.13;;
19137;SDS011;68178;52.188;5.598;2023-03-29T01:28:58;6.90;;;3.50;;
19137;SDS011;68178;52.188;5.598;2023-03-29T01:31:30;4.03;;;3.22;;
19137;SDS011;68178;52.188;5.598;2023-03-29T01:34:07;6.40;;;3.35;;
19137;SDS011;68178;52.188;5.598;2023-03-29T01:36:45;7.18;;;3.78;;
19137;SDS011;68178;52.188;5.598;2023-03-29T01:39:13;6.45;;;4.10;;
19137;SDS011;68178;52.188;5.598;2023-03-29T01:41:47;5.25;;;3.30;;
19137;SDS011;68178;52.188;5.598;2023-03-29T01:44:23;6.47;;;3.20;;
19137;SDS011;68178;52.188;5.598;2023-03-29T01:46:51;4.28;;;3.45;;
19137;SDS011;68178;52.188;5.598;2023-03-29T01:51:47;6.68;;;3.20;;
19137;SDS011;68178;52.188;5.598;2023-03-29T01:54:16;4.25;;;2.90;;
19137;SDS011;68178;52.188;5.598;2023-03-29T01:56:44;6.95;;;3.60;;
19137;SDS011;68178;52.188;5.598;2023-03-29T01:59:14;5.65;;;2.65;;
19137;SDS011;68178;52.188;5.598;2023-03-29T02:01:43;5.22;;;3.60;;
19137;SDS011;68178;52.188;5.598;2023-03-29T02:04:13;4.28;;;3.20;;
19137;SDS011;68178;52.188;5.598;2023-03-29T02:06:41;5.55;;;3.10;;
19137;SDS011;68178;52.188;5.598;2023-03-29T02:09:08;6.07;;;3.50;;
19137;SDS011;68178;52.188;5.598;2023-03-29T02:11:35;6.57;;;3.65;;
19137;SDS011;68178;52.188;5.598;2023-03-29T02:14:01;5.35;;;3.22;;
19137;SDS011;68178;52.188;5.598;2023-03-29T02:16:27;4.30;;;3.40;;
19137;SDS011;68178;52.188;5.598;2023-03-29T02:18:53;3.92;;;3.13;;
19137;SDS011;68178;52.188;5.598;2023-03-29T02:21:23;5.40;;;3.67;;
19137;SDS011;68178;52.188;5.598;2023-03-29T02:23:50;4.95;;;3.58;;
19137;SDS011;68178;52.188;5.598;2023-03-29T02:26:18;6.65;;;3.67;;
19137;SDS011;68178;52.188;5.598;2023-03-29T02:28:48;5.10;;;3.33;;
19137;SDS011;68178;52.188;5.598;2023-03-29T02:31:27;6.55;;;3.80;;
19137;SDS011;68178;52.188;5.598;2023-03-29T02:34:05;5.15;;;3.30;;
19137;SDS011;68178;52.188;5.598;2023-03-29T02:36:42;6.18;;;3.65;;
19137;SDS011;68178;52.188;5.598;2023-03-29T02:39:09;6.40;;;3.40;;
19137;SDS011;68178;52.188;5.598;2023-03-29T02:41:39;7.50;;;4.25;;
19137;SDS011;68178;52.188;5.598;2023-03-29T02:44:06;7.35;;;3.83;;
19137;SDS011;68178;52.188;5.598;2023-03-29T02:46:35;6.35;;;4.20;;
19137;SDS011;68178;52.188;5.598;2023-03-29T02:49:02;6.03;;;3.72;;
19137;SDS011;68178;52.188;5.598;2023-03-29T02:51:32;8.25;;;3.95;;
19137;SDS011;68178;52.188;5.598;2023-03-29T02:54:00;8.32;;;4.20;;
19137;SDS011;68178;52.188;5.598;2023-03-29T02:56:27;5.85;;;4.15;;
19137;SDS011;68178;52.188;5.598;2023-03-29T02:58:53;8.07;;;4.13;;
19137;SDS011;68178;52.188;5.598;2023-03-29T03:01:19;5.65;;;3.95;;
19137;SDS011;68178;52.188;5.598;2023-03-29T03:03:46;4.68;;;3.55;;
19137;SDS011;68178;52.188;5.598;2023-03-29T03:06:14;4.95;;;3.55;;
19137;SDS011;68178;52.188;5.598;2023-03-29T03:08:40;5.30;;;3.92;;
19137;SDS011;68178;52.188;5.598;2023-03-29T03:11:06;7.38;;;3.80;;
19137;SDS011;68178;52.188;5.598;2023-03-29T03:13:32;8.10;;;3.95;;
19137;SDS011;68178;52.188;5.598;2023-03-29T03:15:58;6.60;;;4.28;;
19137;SDS011;68178;52.188;5.598;2023-03-29T03:18:25;7.90;;;4.65;;
19137;SDS011;68178;52.188;5.598;2023-03-29T03:20:55;7.82;;;4.25;;
19137;SDS011;68178;52.188;5.598;2023-03-29T03:23:21;8.20;;;4.32;;
19137;SDS011;68178;52.188;5.598;2023-03-29T03:25:48;6.80;;;4.10;;
19137;SDS011;68178;52.188;5.598;2023-03-29T03:28:13;6.53;;;4.53;;
19137;SDS011;68178;52.188;5.598;2023-03-29T03:30:39;9.00;;;5.20;;
19137;SDS011;68178;52.188;5.598;2023-03-29T03:33:05;8.60;;;3.92;;
19137;SDS011;68178;52.188;5.598;2023-03-29T03:35:33;6.93;;;4.55;;
19137;SDS011;68178;52.188;5.598;2023-03-29T03:37:59;7.88;;;4.47;;
19137;SDS011;68178;52.188;5.598;2023-03-29T03:40:25;5.47;;;4.20;;
19137;SDS011;68178;52.188;5.598;2023-03-29T03:42:51;4.50;;;3.95;;
19137;SDS011;68178;52.188;5.598;2023-03-29T03:45:17;6.57;;;4.22;;
19137;SDS011;68178;52.188;5.598;2023-03-29T03:47:43;8.43;;;4.32;;
19137;SDS011;68178;52.188;5.598;2023-03-29T03:50:10;5.22;;;4.07;;
19137;SDS011;68178;52.188;5.598;2023-03-29T03:52:36;7.60;;;4.88;;
19137;SDS011;68178;52.188;5.598;2023-03-29T03:55:02;7.07;;;5.10;;
19137;SDS011;68178;52.188;5.598;2023-03-29T03:57:28;6.60;;;4.75;;
19137;SDS011;68178;52.188;5.598;2023-03-29T03:59:54;7.13;;;4.00;;
19137;SDS011;68178;52.188;5.598;2023-03-29T04:02:20;8.68;;;5.45;;
19137;SDS011;68178;52.188;5.598;2023-03-29T04:04:46;7.80;;;4.82;;
19137;SDS011;68178;52.188;5.598;2023-03-29T04:07:13;7.97;;;4.88;;
19137;SDS011;68178;52.188;5.598;2023-03-29T04:09:41;6.10;;;4.72;;
19137;SDS011;68178;52.188;5.598;2023-03-29T04:12:09;5.63;;;4.45;;
19137;SDS011;68178;52.188;5.598;2023-03-29T04:14:35;7.80;;;4.47;;
19137;SDS011;68178;52.188;5.598;2023-03-29T04:17:01;8.02;;;5.07;;
19137;SDS011;68178;52.188;5.598;2023-03-29T04:19:27;5.75;;;4.35;;
19137;SDS011;68178;52.188;5.598;2023-03-29T04:21:53;7.60;;;4.90;;
19137;SDS011;68178;52.188;5.598;2023-03-29T04:24:21;6.75;;;4.45;;
19137;SDS011;68178;52.188;5.598;2023-03-29T04:26:48;6.75;;;4.68;;
19137;SDS011;68178;52.188;5.598;2023-03-29T04:29:14;7.78;;;4.43;;
19137;SDS011;68178;52.188;5.598;2023-03-29T04:31:40;5.85;;;4.55;;
19137;SDS011;68178;52.188;5.598;2023-03-29T04:34:06;6.85;;;4.13;;
19137;SDS011;68178;52.188;5.598;2023-03-29T04:36:32;6.85;;;4.45;;
19137;SDS011;68178;52.188;5.598;2023-03-29T04:38:58;6.72;;;4.80;;
19137;SDS011;68178;52.188;5.598;2023-03-29T04:41:25;6.18;;;5.03;;
19137;SDS011;68178;52.188;5.598;2023-03-29T04:43:52;6.78;;;4.50;;
19137;SDS011;68178;52.188;5.598;2023-03-29T04:46:19;7.57;;;4.90;;
19137;SDS011;68178;52.188;5.598;2023-03-29T04:48:46;5.93;;;4.20;;
19137;SDS011;68178;52.188;5.598;2023-03-29T04:51:12;6.63;;;3.63;;
19137;SDS011;68178;52.188;5.598;2023-03-29T04:53:38;8.35;;;4.72;;
19137;SDS011;68178;52.188;5.598;2023-03-29T04:56:04;5.43;;;4.07;;
19137;SDS011;68178;52.188;5.598;2023-03-29T04:58:30;5.60;;;3.67;;
19137;SDS011;68178;52.188;5.598;2023-03-29T05:00:56;6.82;;;4.03;;
19137;SDS011;68178;52.188;5.598;2023-03-29T05:03:22;5.75;;;3.78;;
19137;SDS011;68178;52.188;5.598;2023-03-29T05:05:49;5.22;;;3.90;;
19137;SDS011;68178;52.188;5.598;2023-03-29T05:08:15;7.60;;;4.72;;
19137;SDS011;68178;52.188;5.598;2023-03-29T05:10:42;7.10;;;4.18;;
19137;SDS011;68178;52.188;5.598;2023-03-29T05:13:08;11.35;;;4.80;;
19137;SDS011;68178;52.188;5.598;2023-03-29T05:15:34;11.75;;;4.65;;
19137;SDS011;68178;52.188;5.598;2023-03-29T05:18:03;5.75;;;4.75;;
19137;SDS011;68178;52.188;5.598;2023-03-29T05:20:29;7.65;;;4.40;;
19137;SDS011;68178;52.188;5.598;2023-03-29T05:22:55;9.07;;;4.38;;
19137;SDS011;68178;52.188;5.598;2023-03-29T05:25:21;9.20;;;4.75;;
19137;SDS011;68178;52.188;5.598;2023-03-29T05:27:47;7.60;;;4.60;;
19137;SDS011;68178;52.188;5.598;2023-03-29T05:30:14;5.10;;;4.00;;
19137;SDS011;68178;52.188;5.598;2023-03-29T05:32:40;5.50;;;4.25;;
19137;SDS011;68178;52.188;5.598;2023-03-29T05:35:06;8.75;;;5.30;;
19137;SDS011;68178;52.188;5.598;2023-03-29T05:37:32;7.57;;;4.63;;
19137;SDS011;68178;52.188;5.598;2023-03-29T05:39:59;9.35;;;4.40;;
19137;SDS011;68178;52.188;5.598;2023-03-29T05:42:25;6.72;;;4.30;;
19137;SDS011;68178;52.188;5.598;2023-03-29T05:44:51;7.28;;;4.63;;
19137;SDS011;68178;52.188;5.598;2023-03-29T05:47:17;7.22;;;4.22;;
19137;SDS011;68178;52.188;5.598;2023-03-29T05:49:43;6.50;;;4.53;;
19137;SDS011;68178;52.188;5.598;2023-03-29T05:52:10;5.82;;;4.40;;
19137;SDS011;68178;52.188;5.598;2023-03-29T05:54:37;9.95;;;4.07;;
19137;SDS011;68178;52.188;5.598;2023-03-29T05:57:02;7.43;;;4.50;;
19137;SDS011;68178;52.188;5.598;2023-03-29T05:59:28;7.85;;;4.22;;
19137;SDS011;68178;52.188;5.598;2023-03-29T06:01:54;7.15;;;4.47;;
19137;SDS011;68178;52.188;5.598;2023-03-29T06:04:29;5.47;;;4.70;;
19137;SDS011;68178;52.188;5.598;2023-03-29T06:06:59;12.38;;;4.45;;
19137;SDS011;68178;52.188;5.598;2023-03-29T06:09:26;8.73;;;5.20;;
19137;SDS011;68178;52.188;5.598;2023-03-29T06:11:52;9.25;;;5.15;;
19137;SDS011;68178;52.188;5.598;2023-03-29T06:14:20;6.85;;;4.40;;
19137;SDS011;68178;52.188;5.598;2023-03-29T06:16:47;7.15;;;5.05;;
19137;SDS011;68178;52.188;5.598;2023-03-29T06:19:14;10.27;;;5.03;;
19137;SDS011;68178;52.188;5.598;2023-03-29T06:21:40;7.78;;;4.30;;
19137;SDS011;68178;52.188;5.598;2023-03-29T06:24:06;9.43;;;4.55;;
19137;SDS011;68178;52.188;5.598;2023-03-29T06:26:32;7.32;;;4.32;;
19137;SDS011;68178;52.188;5.598;2023-03-29T06:28:58;5.68;;;4.63;;
19137;SDS011;68178;52.188;5.598;2023-03-29T06:31:24;6.70;;;4.68;;
19137;SDS011;68178;52.188;5.598;2023-03-29T06:33:50;6.32;;;4.97;;
19137;SDS011;68178;52.188;5.598;2023-03-29T06:36:16;8.43;;;4.47;;
19137;SDS011;68178;52.188;5.598;2023-03-29T06:38:42;6.90;;;4.63;;
19137;SDS011;68178;52.188;5.598;2023-03-29T06:41:11;9.80;;;5.22;;
19137;SDS011;68178;52.188;5.598;2023-03-29T06:43:37;7.32;;;4.75;;
19137;SDS011;68178;52.188;5.598;2023-03-29T06:46:03;7.28;;;4.95;;
19137;SDS011;68178;52.188;5.598;2023-03-29T06:48:35;6.90;;;4.95;;
19137;SDS011;68178;52.188;5.598;2023-03-29T06:51:01;5.50;;;4.10;;
19137;SDS011;68178;52.188;5.598;2023-03-29T06:53:27;13.02;;;5.53;;
19137;SDS011;68178;52.188;5.598;2023-03-29T06:55:53;8.35;;;5.13;;
19137;SDS011;68178;52.188;5.598;2023-03-29T06:58:19;6.07;;;4.50;;
19137;SDS011;68178;52.188;5.598;2023-03-29T07:00:45;5.88;;;4.93;;
19137;SDS011;68178;52.188;5.598;2023-03-29T07:03:11;8.52;;;4.55;;
19137;SDS011;68178;52.188;5.598;2023-03-29T07:05:44;9.82;;;4.97;;
19137;SDS011;68178;52.188;5.598;2023-03-29T07:08:10;9.27;;;4.78;;
19137;SDS011;68178;52.188;5.598;2023-03-29T07:10:41;8.80;;;5.30;;
19137;SDS011;68178;52.188;5.598;2023-03-29T07:13:08;7.25;;;5.10;;
19137;SDS011;68178;52.188;5.598;2023-03-29T07:15:37;13.10;;;5.55;;
19137;SDS011;68178;52.188;5.598;2023-03-29T07:18:03;6.72;;;5.25;;
19137;SDS011;68178;52.188;5.598;2023-03-29T07:20:30;7.30;;;5.55;;
19137;SDS011;68178;52.188;5.598;2023-03-29T07:22:56;10.93;;;5.55;;
19137;SDS011;68178;52.188;5.598;2023-03-29T07:25:22;8.52;;;6.22;;
19137;SDS011;68178;52.188;5.598;2023-03-29T07:27:49;11.70;;;5.55;;
19137;SDS011;68178;52.188;5.598;2023-03-29T07:30:25;7.75;;;5.95;;
19137;SDS011;68178;52.188;5.598;2023-03-29T07:32:52;8.45;;;6.45;;
19137;SDS011;68178;52.188;5.598;2023-03-29T07:35:19;8.70;;;5.57;;
19137;SDS011;68178;52.188;5.598;2023-03-29T07:37:47;9.90;;;5.88;;
19137;SDS011;68178;52.188;5.598;2023-03-29T07:40:14;10.70;;;6.30;;
19137;SDS011;68178;52.188;5.598;2023-03-29T07:42:47;10.40;;;6.25;;
19137;SDS011;68178;52.188;5.598;2023-03-29T07:45:14;7.13;;;6.00;;
19137;SDS011;68178;52.188;5.598;2023-03-29T07:47:44;11.15;;;5.68;;
19137;SDS011;68178;52.188;5.598;2023-03-29T07:50:10;8.98;;;5.95;;
19137;SDS011;68178;52.188;5.598;2023-03-29T07:52:36;7.65;;;5.75;;
19137;SDS011;68178;52.188;5.598;2023-03-29T07:55:04;10.88;;;6.40;;
19137;SDS011;68178;52.188;5.598;2023-03-29T07:57:31;11.35;;;6.57;;
19137;SDS011;68178;52.188;5.598;2023-03-29T07:59:57;9.95;;;6.18;;
19137;SDS011;68178;52.188;5.598;2023-03-29T08:02:23;11.13;;;5.55;;
19137;SDS011;68178;52.188;5.598;2023-03-29T08:04:48;10.63;;;6.18;;
19137;SDS011;68178;52.188;5.598;2023-03-29T08:07:16;10.77;;;6.45;;
19137;SDS011;68178;52.188;5.598;2023-03-29T08:09:44;10.60;;;6.20;;
19137;SDS011;68178;52.188;5.598;2023-03-29T08:12:10;9.35;;;6.00;;
19137;SDS011;68178;52.188;5.598;2023-03-29T08:14:36;9.88;;;6.47;;
19137;SDS011;68178;52.188;5.598;2023-03-29T08:17:02;7.50;;;5.90;;
19137;SDS011;68178;52.188;5.598;2023-03-29T08:19:28;12.05;;;6.93;;
19137;SDS011;68178;52.188;5.598;2023-03-29T08:21:54;15.77;;;6.75;;
19137;SDS011;68178;52.188;5.598;2023-03-29T08:24:20;10.30;;;7.13;;
19137;SDS011;68178;52.188;5.598;2023-03-29T08:26:46;12.38;;;7.00;;
19137;SDS011;68178;52.188;5.598;2023-03-29T08:29:12;9.15;;;6.57;;
19137;SDS011;68178;52.188;5.598;2023-03-29T08:31:39;9.13;;;6.75;;
19137;SDS011;68178;52.188;5.598;2023-03-29T08:34:05;10.18;;;7.00;;
19137;SDS011;68178;52.188;5.598;2023-03-29T08:36:31;13.32;;;7.53;;
19137;SDS011;68178;52.188;5.598;2023-03-29T08:38:57;10.52;;;7.05;;
19137;SDS011;68178;52.188;5.598;2023-03-29T08:44:16;10.98;;;7.32;;
19137;SDS011;68178;52.188;5.598;2023-03-29T08:46:47;14.88;;;7.88;;
19137;SDS011;68178;52.188;5.598;2023-03-29T08:49:16;14.43;;;8.90;;
19137;SDS011;68178;52.188;5.598;2023-03-29T08:51:44;11.07;;;8.77;;
19137;SDS011;68178;52.188;5.598;2023-03-29T08:54:14;12.82;;;8.20;;
19137;SDS011;68178;52.188;5.598;2023-03-29T08:56:41;19.85;;;8.75;;
19137;SDS011;68178;52.188;5.598;2023-03-29T08:59:15;16.33;;;8.52;;
19137;SDS011;68178;52.188;5.598;2023-03-29T09:01:42;15.40;;;9.13;;
19137;SDS011;68178;52.188;5.598;2023-03-29T09:04:08;13.57;;;7.80;;
19137;SDS011;68178;52.188;5.598;2023-03-29T09:06:40;13.80;;;8.95;;
19137;SDS011;68178;52.188;5.598;2023-03-29T09:09:16;13.98;;;9.30;;
19137;SDS011;68178;52.188;5.598;2023-03-29T09:11:50;16.02;;;10.13;;
19137;SDS011;68178;52.188;5.598;2023-03-29T09:24:59;14.30;;;9.20;;
19137;SDS011;68178;52.188;5.598;2023-03-29T09:27:32;16.38;;;9.55;;
19137;SDS011;68178;52.188;5.598;2023-03-29T09:30:10;12.93;;;8.95;;
19137;SDS011;68178;52.188;5.598;2023-03-29T09:32:52;14.30;;;8.70;;
19137;SDS011;68178;52.188;5.598;2023-03-29T09:35:22;14.13;;;10.10;;
19137;SDS011;68178;52.188;5.598;2023-03-29T09:37:49;12.68;;;9.52;;
19137;SDS011;68178;52.188;5.598;2023-03-29T09:40:16;12.60;;;9.50;;
19137;SDS011;68178;52.188;5.598;2023-03-29T09:42:44;12.90;;;9.13;;
19137;SDS011;68178;52.188;5.598;2023-03-29T09:45:10;11.30;;;9.82;;
19137;SDS011;68178;52.188;5.598;2023-03-29T09:47:38;14.77;;;9.82;;
19137;SDS011;68178;52.188;5.598;2023-03-29T09:50:11;12.93;;;10.25;;
19137;SDS011;68178;52.188;5.598;2023-03-29T09:52:39;15.25;;;10.32;;
19137;SDS011;68178;52.188;5.598;2023-03-29T09:55:05;13.70;;;9.77;;
19137;SDS011;68178;52.188;5.598;2023-03-29T09:57:31;13.07;;;9.68;;
19137;SDS011;68178;52.188;5.598;2023-03-29T09:59:58;20.15;;;10.60;;
19137;SDS011;68178;52.188;5.598;2023-03-29T10:02:28;13.27;;;10.25;;
19137;SDS011;68178;52.188;5.598;2023-03-29T10:04:54;16.50;;;10.65;;
19137;SDS011;68178;52.188;5.598;2023-03-29T10:07:22;15.25;;;10.25;;
19137;SDS011;68178;52.188;5.598;2023-03-29T10:09:49;14.70;;;10.38;;
19137;SDS011;68178;52.188;5.598;2023-03-29T10:12:16;18.08;;;10.52;;
19137;SDS011;68178;52.188;5.598;2023-03-29T10:17:15;15.00;;;10.75;;
19137;SDS011;68178;52.188;5.598;2023-03-29T10:19:47;15.65;;;10.80;;
19137;SDS011;68178;52.188;5.598;2023-03-29T10:22:15;13.00;;;11.05;;
19137;SDS011;68178;52.188;5.598;2023-03-29T10:24:45;14.63;;;10.60;;
19137;SDS011;68178;52.188;5.598;2023-03-29T10:27:12;18.85;;;12.48;;
19137;SDS011;68178;52.188;5.598;2023-03-29T10:29:39;14.13;;;11.52;;
19137;SDS011;68178;52.188;5.598;2023-03-29T10:32:12;15.20;;;11.90;;
19137;SDS011;68178;52.188;5.598;2023-03-29T10:34:39;20.17;;;13.02;;
19137;SDS011;68178;52.188;5.598;2023-03-29T10:37:05;16.23;;;11.95;;
19137;SDS011;68178;52.188;5.598;2023-03-29T10:39:33;16.58;;;11.30;;
19137;SDS011;68178;52.188;5.598;2023-03-29T10:41:59;14.13;;;11.57;;
19137;SDS011;68178;52.188;5.598;2023-03-29T10:44:31;16.00;;;11.65;;
19137;SDS011;68178;52.188;5.598;2023-03-29T10:49:53;13.48;;;10.80;;
19137;SDS011;68178;52.188;5.598;2023-03-29T10:52:20;12.70;;;10.40;;
19137;SDS011;68178;52.188;5.598;2023-03-29T10:54:46;12.82;;;11.25;;
19137;SDS011;68178;52.188;5.598;2023-03-29T10:57:32;13.20;;;11.48;;
19137;SDS011;68178;52.188;5.598;2023-03-29T11:00:03;15.70;;;11.70;;
19137;SDS011;68178;52.188;5.598;2023-03-29T11:05:17;14.70;;;12.32;;
19137;SDS011;68178;52.188;5.598;2023-03-29T11:12:49;12.90;;;11.38;;
19137;SDS011;68178;52.188;5.598;2023-03-29T11:15:40;13.52;;;10.57;;
19137;SDS011;68178;52.188;5.598;2023-03-29T11:18:12;11.55;;;10.27;;
19137;SDS011;68178;52.188;5.598;2023-03-29T11:20:43;14.48;;;11.95;;
19137;SDS011;68178;52.188;5.598;2023-03-29T11:23:14;14.23;;;11.18;;
19137;SDS011;68178;52.188;5.598;2023-03-29T11:25:52;16.38;;;11.63;;
19137;SDS011;68178;52.188;5.598;2023-03-29T11:28:29;12.55;;;11.25;;
19137;SDS011;68178;52.188;5.598;2023-03-29T11:31:02;13.32;;;11.30;;
19137;SDS011;68178;52.188;5.598;2023-03-29T11:33:47;13.13;;;11.70;;
19137;SDS011;68178;52.188;5.598;2023-03-29T11:38:56;18.52;;;12.48;;
19137;SDS011;68178;52.188;5.598;2023-03-29T11:41:36;17.27;;;11.48;;
19137;SDS011;68178;52.188;5.598;2023-03-29T11:44:19;18.13;;;12.52;;
19137;SDS011;68178;52.188;5.598;2023-03-29T11:46:55;15.82;;;13.27;;
19137;SDS011;68178;52.188;5.598;2023-03-29T11:49:36;17.00;;;13.63;;
19137;SDS011;68178;52.188;5.598;2023-03-29T11:52:11;14.93;;;12.60;;
19137;SDS011;68178;52.188;5.598;2023-03-29T11:54:40;16.63;;;12.40;;
19137;SDS011;68178;52.188;5.598;2023-03-29T11:59:55;13.32;;;11.82;;
19137;SDS011;68178;52.188;5.598;2023-03-29T12:02:32;15.52;;;13.90;;
19137;SDS011;68178;52.188;5.598;2023-03-29T12:05:02;15.20;;;12.70;;
19137;SDS011;68178;52.188;5.598;2023-03-29T12:07:34;15.73;;;12.65;;
19137;SDS011;68178;52.188;5.598;2023-03-29T12:10:06;13.63;;;12.18;;
19137;SDS011;68178;52.188;5.598;2023-03-29T12:17:39;13.75;;;11.85;;
19137;SDS011;68178;52.188;5.598;2023-03-29T12:22:33;13.30;;;11.43;;
19137;SDS011;68178;52.188;5.598;2023-03-29T12:24:59;13.90;;;12.45;;
19137;SDS011;68178;52.188;5.598;2023-03-29T12:27:30;15.25;;;12.73;;
19137;SDS011;68178;52.188;5.598;2023-03-29T12:38:07;14.90;;;12.95;;
19137;SDS011;68178;52.188;5.598;2023-03-29T12:40:44;13.57;;;12.18;;
19137;SDS011;68178;52.188;5.598;2023-03-29T12:43:32;15.05;;;12.50;;
19137;SDS011;68178;52.188;5.598;2023-03-29T12:45:58;16.85;;;12.98;;
19137;SDS011;68178;52.188;5.598;2023-03-29T12:48:26;14.65;;;12.00;;
19137;SDS011;68178;52.188;5.598;2023-03-29T12:51:02;17.02;;;13.35;;
19137;SDS011;68178;52.188;5.598;2023-03-29T12:53:33;15.13;;;13.00;;
19137;SDS011;68178;52.188;5.598;2023-03-29T13:03:40;19.60;;;16.65;;
19137;SDS011;68178;52.188;5.598;2023-03-29T13:06:08;20.40;;;18.23;;
19137;SDS011;68178;52.188;5.598;2023-03-29T13:08:35;21.52;;;16.88;;
19137;SDS011;68178;52.188;5.598;2023-03-29T13:11:02;22.20;;;18.05;;
19137;SDS011;68178;52.188;5.598;2023-03-29T13:13:29;20.70;;;17.88;;
19137;SDS011;68178;52.188;5.598;2023-03-29T13:16:13;20.05;;;16.98;;
19137;SDS011;68178;52.188;5.598;2023-03-29T13:18:50;19.45;;;17.25;;
19137;SDS011;68178;52.188;5.598;2023-03-29T13:32:16;19.63;;;15.55;;
19137;SDS011;68178;52.188;5.598;2023-03-29T13:45:34;19.50;;;16.95;;
19137;SDS011;68178;52.188;5.598;2023-03-29T13:53:48;20.83;;;17.63;;
19137;SDS011;68178;52.188;5.598;2023-03-29T13:56:17;18.73;;;16.70;;
19137;SDS011;68178;52.188;5.598;2023-03-29T13:58:47;19.25;;;17.10;;
19137;SDS011;68178;52.188;5.598;2023-03-29T14:03:50;20.38;;;18.20;;
19137;SDS011;68178;52.188;5.598;2023-03-29T14:06:20;19.08;;;17.08;;
19137;SDS011;68178;52.188;5.598;2023-03-29T14:08:48;19.60;;;17.20;;
19137;SDS011;68178;52.188;5.598;2023-03-29T14:11:26;20.02;;;17.92;;
19137;SDS011;68178;52.188;5.598;2023-03-29T14:13:56;19.85;;;16.75;;
19137;SDS011;68178;52.188;5.598;2023-03-29T14:16:25;17.70;;;15.98;;
19137;SDS011;68178;52.188;5.598;2023-03-29T14:18:51;19.42;;;16.55;;
19137;SDS011;68178;52.188;5.598;2023-03-29T14:21:20;17.48;;;15.65;;
19137;SDS011;68178;52.188;5.598;2023-03-29T14:23:46;24.13;;;17.30;;
19137;SDS011;68178;52.188;5.598;2023-03-29T14:26:19;18.58;;;16.65;;
19137;SDS011;68178;52.188;5.598;2023-03-29T14:28:46;20.05;;;16.73;;
19137;SDS011;68178;52.188;5.598;2023-03-29T14:31:16;20.30;;;17.48;;
19137;SDS011;68178;52.188;5.598;2023-03-29T14:33:43;17.45;;;15.75;;
19137;SDS011;68178;52.188;5.598;2023-03-29T14:36:09;18.02;;;16.27;;
19137;SDS011;68178;52.188;5.598;2023-03-29T14:38:38;29.42;;;22.05;;
19137;SDS011;68178;52.188;5.598;2023-03-29T14:41:04;37.65;;;24.58;;
19137;SDS011;68178;52.188;5.598;2023-03-29T14:43:31;19.60;;;16.65;;
19137;SDS011;68178;52.188;5.598;2023-03-29T14:46:05;16.20;;;14.52;;
19137;SDS011;68178;52.188;5.598;2023-03-29T14:48:37;17.60;;;15.82;;
19137;SDS011;68178;52.188;5.598;2023-03-29T14:51:04;18.88;;;14.88;;
19137;SDS011;68178;52.188;5.598;2023-03-29T14:53:30;20.27;;;15.43;;
19137;SDS011;68178;52.188;5.598;2023-03-29T14:55:58;17.45;;;15.40;;
19137;SDS011;68178;52.188;5.598;2023-03-29T14:58:26;16.25;;;14.00;;
19137;SDS011;68178;52.188;5.598;2023-03-29T15:00:53;17.13;;;14.80;;
19137;SDS011;68178;52.188;5.598;2023-03-29T15:03:19;21.10;;;15.70;;
19137;SDS011;68178;52.188;5.598;2023-03-29T15:05:53;16.83;;;14.93;;
19137;SDS011;68178;52.188;5.598;2023-03-29T15:08:28;17.25;;;15.45;;
19137;SDS011;68178;52.188;5.598;2023-03-29T15:10:54;18.20;;;14.32;;
19137;SDS011;68178;52.188;5.598;2023-03-29T15:13:21;14.40;;;12.55;;
19137;SDS011;68178;52.188;5.598;2023-03-29T15:15:52;15.82;;;13.63;;
19137;SDS011;68178;52.188;5.598;2023-03-29T15:18:20;15.52;;;13.55;;
19137;SDS011;68178;52.188;5.598;2023-03-29T15:20:47;14.27;;;12.55;;
19137;SDS011;68178;52.188;5.598;2023-03-29T15:28:32;13.88;;;12.13;;
19137;SDS011;68178;52.188;5.598;2023-03-29T15:31:02;17.63;;;13.60;;
19137;SDS011;68178;52.188;5.598;2023-03-29T15:33:39;14.85;;;12.52;;
19137;SDS011;68178;52.188;5.598;2023-03-29T15:36:06;16.88;;;12.77;;
19137;SDS011;68178;52.188;5.598;2023-03-29T15:38:32;15.25;;;13.38;;
19137;SDS011;68178;52.188;5.598;2023-03-29T15:40:59;15.00;;;12.23;;
19137;SDS011;68178;52.188;5.598;2023-03-29T15:43:25;14.68;;;11.60;;
19137;SDS011;68178;52.188;5.598;2023-03-29T15:45:51;12.90;;;11.50;;
19137;SDS011;68178;52.188;5.598;2023-03-29T15:48:18;14.35;;;11.43;;
19137;SDS011;68178;52.188;5.598;2023-03-29T15:50:45;13.15;;;11.70;;
19137;SDS011;68178;52.188;5.598;2023-03-29T15:53:11;15.35;;;11.90;;
19137;SDS011;68178;52.188;5.598;2023-03-29T15:55:40;14.77;;;11.25;;
19137;SDS011;68178;52.188;5.598;2023-03-29T15:58:15;15.90;;;12.27;;
19137;SDS011;68178;52.188;5.598;2023-03-29T16:00:43;18.67;;;13.02;;
19137;SDS011;68178;52.188;5.598;2023-03-29T16:03:13;13.95;;;12.30;;
19137;SDS011;68178;52.188;5.598;2023-03-29T16:05:43;16.42;;;12.30;;
19137;SDS011;68178;52.188;5.598;2023-03-29T16:08:15;12.98;;;11.32;;
19137;SDS011;68178;52.188;5.598;2023-03-29T16:10:41;13.13;;;11.45;;
19137;SDS011;68178;52.188;5.598;2023-03-29T16:13:11;14.15;;;10.82;;
19137;SDS011;68178;52.188;5.598;2023-03-29T16:15:38;12.52;;;9.60;;
19137;SDS011;68178;52.188;5.598;2023-03-29T16:18:05;10.45;;;9.30;;
19137;SDS011;68178;52.188;5.598;2023-03-29T16:20:31;9.55;;;8.60;;
19137;SDS011;68178;52.188;5.598;2023-03-29T16:22:57;9.35;;;8.43;;
19137;SDS011;68178;52.188;5.598;2023-03-29T16:25:23;10.63;;;8.23;;
19137;SDS011;68178;52.188;5.598;2023-03-29T16:27:49;11.48;;;8.05;;
19137;SDS011;68178;52.188;5.598;2023-03-29T16:30:16;11.95;;;8.48;;